sensor_id;sensor_type;location;lat;lon;timestamp;pressure;altitude;pressure_sealevel;temperature;humidity
41264;BME280;26998;48.714;9.414;2022-08-24T00:02:02;98852.13;;;16.01;100.00
41264;BME280;26998;48.714;9.414;2022-08-24T00:04:29;98863.38;;;15.98;100.00
41264;BME280;26998;48.714;9.414;2022-08-24T00:06:57;98860.53;;;15.93;100.00
41264;BME280;26998;48.714;9.414;2022-08-24T00:09:24;98857.59;;;15.83;100.00
41264;BME280;26998;48.714;9.414;2022-08-24T00:11:51;98858.53;;;15.77;100.00
41264;BME280;26998;48.714;9.414;2022-08-24T00:14:18;98850.84;;;15.62;100.00
41264;BME280;26998;48.714;9.414;2022-08-24T00:16:45;98854.00;;;15.59;100.00
41264;BME280;26998;48.714;9.414;2022-08-24T00:19:12;98859.94;;;15.49;100.00
41264;BME280;26998;48.714;9.414;2022-08-24T00:21:49;98861.66;;;15.43;100.00
41264;BME280;26998;48.714;9.414;2022-08-24T00:24:15;98858.16;;;15.43;100.00
41264;BME280;26998;48.714;9.414;2022-08-24T00:26:41;98861.31;;;15.40;100.00
41264;BME280;26998;48.714;9.414;2022-08-24T00:29:08;98864.81;;;15.40;100.00
41264;BME280;26998;48.714;9.414;2022-08-24T00:31:35;98868.56;;;15.39;100.00
41264;BME280;26998;48.714;9.414;2022-08-24T00:34:01;98864.81;;;15.40;100.00
41264;BME280;26998;48.714;9.414;2022-08-24T00:36:28;98868.56;;;15.39;100.00
41264;BME280;26998;48.714;9.414;2022-08-24T00:38:54;98860.84;;;15.43;100.00
41264;BME280;26998;48.714;9.414;2022-08-24T00:41:21;98860.97;;;15.48;100.00
41264;BME280;26998;48.714;9.414;2022-08-24T00:43:54;98860.16;;;15.47;100.00
41264;BME280;26998;48.714;9.414;2022-08-24T00:46:26;98867.72;;;15.39;100.00
41264;BME280;26998;48.714;9.414;2022-08-24T00:48:58;98866.78;;;15.33;100.00
41264;BME280;26998;48.714;9.414;2022-08-24T00:51:28;98864.31;;;15.32;100.00
41264;BME280;26998;48.714;9.414;2022-08-24T00:53:57;98867.56;;;15.22;100.00
41264;BME280;26998;48.714;9.414;2022-08-24T00:56:28;98872.22;;;15.15;100.00
41264;BME280;26998;48.714;9.414;2022-08-24T00:58:58;98871.25;;;15.09;100.00
41264;BME280;26998;48.714;9.414;2022-08-24T01:01:27;98864.25;;;15.08;100.00
41264;BME280;26998;48.714;9.414;2022-08-24T01:03:55;98863.53;;;15.13;100.00
41264;BME280;26998;48.714;9.414;2022-08-24T01:06:23;98860.19;;;15.17;100.00
41264;BME280;26998;48.714;9.414;2022-08-24T01:08:49;98869.66;;;15.20;100.00
41264;BME280;26998;48.714;9.414;2022-08-24T01:11:22;98866.75;;;15.21;100.00
41264;BME280;26998;48.714;9.414;2022-08-24T01:13:51;98874.56;;;15.23;100.00
41264;BME280;26998;48.714;9.414;2022-08-24T01:16:18;98871.31;;;15.21;100.00
41264;BME280;26998;48.714;9.414;2022-08-24T01:18:46;98870.09;;;15.17;100.00
41264;BME280;26998;48.714;9.414;2022-08-24T01:23:52;98867.31;;;14.93;100.00
41264;BME280;26998;48.714;9.414;2022-08-24T01:26:21;98867.69;;;14.97;100.00
41264;BME280;26998;48.714;9.414;2022-08-24T01:28:51;98866.03;;;14.96;100.00
41264;BME280;26998;48.714;9.414;2022-08-24T01:31:21;98873.00;;;14.85;100.00
41264;BME280;26998;48.714;9.414;2022-08-24T01:33:52;98873.53;;;14.75;100.00
41264;BME280;26998;48.714;9.414;2022-08-24T01:38:59;98871.19;;;14.79;100.00
41264;BME280;26998;48.714;9.414;2022-08-24T01:41:27;98879.59;;;14.71;100.00
41264;BME280;26998;48.714;9.414;2022-08-24T01:43:54;98873.38;;;14.52;100.00
41264;BME280;26998;48.714;9.414;2022-08-24T01:46:21;98874.81;;;14.48;100.00
41264;BME280;26998;48.714;9.414;2022-08-24T01:48:47;98888.56;;;14.40;100.00
41264;BME280;26998;48.714;9.414;2022-08-24T01:51:14;98891.91;;;14.35;100.00
41264;BME280;26998;48.714;9.414;2022-08-24T01:53:40;98885.34;;;14.31;100.00
41264;BME280;26998;48.714;9.414;2022-08-24T01:56:06;98889.44;;;14.33;100.00
41264;BME280;26998;48.714;9.414;2022-08-24T01:58:33;98888.66;;;14.26;100.00
41264;BME280;26998;48.714;9.414;2022-08-24T02:00:59;98882.66;;;14.31;100.00
41264;BME280;26998;48.714;9.414;2022-08-24T02:03:28;98885.94;;;14.33;100.00
41264;BME280;26998;48.714;9.414;2022-08-24T02:05:55;98885.88;;;14.40;100.00
41264;BME280;26998;48.714;9.414;2022-08-24T02:08:22;98894.31;;;14.43;100.00
41264;BME280;26998;48.714;9.414;2022-08-24T02:10:48;98892.16;;;14.33;100.00
41264;BME280;26998;48.714;9.414;2022-08-24T02:13:22;98890.91;;;14.29;100.00
41264;BME280;26998;48.714;9.414;2022-08-24T02:15:49;98889.06;;;14.30;100.00
41264;BME280;26998;48.714;9.414;2022-08-24T02:18:15;98890.72;;;14.31;100.00
41264;BME280;26998;48.714;9.414;2022-08-24T02:20:42;98895.47;;;14.29;100.00
41264;BME280;26998;48.714;9.414;2022-08-24T02:23:08;98896.91;;;14.31;100.00
41264;BME280;26998;48.714;9.414;2022-08-24T02:25:35;98900.78;;;14.36;100.00
41264;BME280;26998;48.714;9.414;2022-08-24T02:28:02;98901.22;;;14.32;100.00
41264;BME280;26998;48.714;9.414;2022-08-24T02:30:29;98901.97;;;14.21;100.00
41264;BME280;26998;48.714;9.414;2022-08-24T02:32:55;98888.34;;;14.16;100.00
41264;BME280;26998;48.714;9.414;2022-08-24T02:35:22;98892.91;;;14.16;100.00
41264;BME280;26998;48.714;9.414;2022-08-24T02:37:49;98894.41;;;14.12;100.00
41264;BME280;26998;48.714;9.414;2022-08-24T02:40:15;98900.81;;;14.10;100.00
41264;BME280;26998;48.714;9.414;2022-08-24T02:42:41;98892.31;;;14.14;100.00
41264;BME280;26998;48.714;9.414;2022-08-24T02:45:10;98893.13;;;14.14;100.00
41264;BME280;26998;48.714;9.414;2022-08-24T02:47:37;98899.78;;;14.12;100.00
41264;BME280;26998;48.714;9.414;2022-08-24T02:50:05;98899.84;;;14.05;100.00
41264;BME280;26998;48.714;9.414;2022-08-24T02:52:32;98896.53;;;14.03;100.00
41264;BME280;26998;48.714;9.414;2022-08-24T02:54:59;98901.31;;;14.01;100.00
41264;BME280;26998;48.714;9.414;2022-08-24T02:57:25;98894.50;;;13.98;100.00
41264;BME280;26998;48.714;9.414;2022-08-24T02:59:52;98897.78;;;14.00;100.00
41264;BME280;26998;48.714;9.414;2022-08-24T03:02:18;98902.78;;;13.97;100.00
41264;BME280;26998;48.714;9.414;2022-08-24T03:04:45;98899.78;;;13.86;100.00
41264;BME280;26998;48.714;9.414;2022-08-24T03:07:14;98897.84;;;13.69;100.00
41264;BME280;26998;48.714;9.414;2022-08-24T03:09:41;98893.97;;;13.58;100.00
41264;BME280;26998;48.714;9.414;2022-08-24T03:12:07;98902.25;;;13.56;100.00
41264;BME280;26998;48.714;9.414;2022-08-24T03:14:34;98910.06;;;13.58;100.00
41264;BME280;26998;48.714;9.414;2022-08-24T03:17:00;98904.13;;;13.56;100.00
41264;BME280;26998;48.714;9.414;2022-08-24T03:19:27;98899.31;;;13.58;100.00
41264;BME280;26998;48.714;9.414;2022-08-24T03:21:54;98896.06;;;13.56;100.00
41264;BME280;26998;48.714;9.414;2022-08-24T03:24:20;98891.06;;;13.59;100.00
41264;BME280;26998;48.714;9.414;2022-08-24T03:26:46;98894.75;;;13.65;100.00
41264;BME280;26998;48.714;9.414;2022-08-24T03:29:13;98894.91;;;13.70;100.00
41264;BME280;26998;48.714;9.414;2022-08-24T03:31:41;98887.09;;;13.69;100.00
41264;BME280;26998;48.714;9.414;2022-08-24T03:34:07;98894.31;;;13.68;100.00
41264;BME280;26998;48.714;9.414;2022-08-24T03:36:34;98892.66;;;13.67;100.00
41264;BME280;26998;48.714;9.414;2022-08-24T03:39:00;98887.72;;;13.71;100.00
41264;BME280;26998;48.714;9.414;2022-08-24T03:41:27;98886.47;;;13.67;100.00
41264;BME280;26998;48.714;9.414;2022-08-24T03:43:53;98883.59;;;13.68;100.00
41264;BME280;26998;48.714;9.414;2022-08-24T03:46:21;98885.91;;;13.58;100.00
41264;BME280;26998;48.714;9.414;2022-08-24T03:48:50;98894.00;;;13.51;100.00
41264;BME280;26998;48.714;9.414;2022-08-24T03:51:19;98891.00;;;13.34;100.00
41264;BME280;26998;48.714;9.414;2022-08-24T03:53:47;98902.63;;;13.22;100.00
41264;BME280;26998;48.714;9.414;2022-08-24T03:56:14;98898.53;;;13.12;100.00
41264;BME280;26998;48.714;9.414;2022-08-24T03:58:40;98902.91;;;13.00;100.00
41264;BME280;26998;48.714;9.414;2022-08-24T04:01:07;98899.00;;;12.96;100.00
41264;BME280;26998;48.714;9.414;2022-08-24T04:03:35;98902.94;;;12.93;100.00
41264;BME280;26998;48.714;9.414;2022-08-24T04:06:02;98905.44;;;12.88;100.00
41264;BME280;26998;48.714;9.414;2022-08-24T04:08:28;98897.38;;;12.88;100.00
41264;BME280;26998;48.714;9.414;2022-08-24T04:10:55;98905.38;;;13.02;100.00
41264;BME280;26998;48.714;9.414;2022-08-24T04:13:21;98903.94;;;13.06;100.00
41264;BME280;26998;48.714;9.414;2022-08-24T04:15:48;98905.56;;;13.07;100.00
41264;BME280;26998;48.714;9.414;2022-08-24T04:18:15;98904.50;;;13.08;100.00
41264;BME280;26998;48.714;9.414;2022-08-24T04:20:41;98901.44;;;13.04;100.00
41264;BME280;26998;48.714;9.414;2022-08-24T04:23:09;98898.97;;;13.03;100.00
41264;BME280;26998;48.714;9.414;2022-08-24T04:25:47;98896.72;;;13.00;100.00
41264;BME280;26998;48.714;9.414;2022-08-24T04:28:24;98907.06;;;12.96;100.00
41264;BME280;26998;48.714;9.414;2022-08-24T04:30:51;98907.06;;;12.96;100.00
41264;BME280;26998;48.714;9.414;2022-08-24T04:33:18;98901.47;;;12.98;100.00
41264;BME280;26998;48.714;9.414;2022-08-24T04:35:46;98908.47;;;12.99;100.00
41264;BME280;26998;48.714;9.414;2022-08-24T04:38:14;98910.31;;;13.05;100.00
41264;BME280;26998;48.714;9.414;2022-08-24T04:40:41;98907.41;;;13.13;100.00
41264;BME280;26998;48.714;9.414;2022-08-24T04:43:12;98909.03;;;13.14;100.00
41264;BME280;26998;48.714;9.414;2022-08-24T04:45:45;98918.31;;;13.11;100.00
41264;BME280;26998;48.714;9.414;2022-08-24T04:48:13;98918.56;;;13.10;100.00
41264;BME280;26998;48.714;9.414;2022-08-24T04:50:40;98918.31;;;13.11;100.00
41264;BME280;26998;48.714;9.414;2022-08-24T04:53:07;98923.88;;;13.16;100.00
41264;BME280;26998;48.714;9.414;2022-08-24T04:55:40;98921.00;;;13.25;100.00
41264;BME280;26998;48.714;9.414;2022-08-24T04:58:07;98927.16;;;13.32;100.00
41264;BME280;26998;48.714;9.414;2022-08-24T05:00:33;98927.94;;;13.39;100.00
41264;BME280;26998;48.714;9.414;2022-08-24T05:03:00;98929.13;;;13.50;100.00
41264;BME280;26998;48.714;9.414;2022-08-24T05:05:26;98933.59;;;13.62;100.00
41264;BME280;26998;48.714;9.414;2022-08-24T05:07:53;98931.53;;;13.65;100.00
41264;BME280;26998;48.714;9.414;2022-08-24T05:10:21;98938.72;;;13.71;100.00
41264;BME280;26998;48.714;9.414;2022-08-24T05:12:48;98941.66;;;13.62;100.00
41264;BME280;26998;48.714;9.414;2022-08-24T05:15:14;98941.03;;;13.60;100.00
41264;BME280;26998;48.714;9.414;2022-08-24T05:17:41;98940.13;;;13.42;100.00
41264;BME280;26998;48.714;9.414;2022-08-24T05:20:15;98941.81;;;13.29;100.00
41264;BME280;26998;48.714;9.414;2022-08-24T05:22:41;98938.31;;;13.22;100.00
41264;BME280;26998;48.714;9.414;2022-08-24T05:25:08;98938.31;;;13.29;100.00
41264;BME280;26998;48.714;9.414;2022-08-24T05:27:34;98940.81;;;13.30;100.00
41264;BME280;26998;48.714;9.414;2022-08-24T05:30:01;98935.97;;;13.46;100.00
41264;BME280;26998;48.714;9.414;2022-08-24T05:32:27;98930.16;;;13.55;100.00
41264;BME280;26998;48.714;9.414;2022-08-24T05:34:54;98931.53;;;13.65;100.00
41264;BME280;26998;48.714;9.414;2022-08-24T05:37:20;98931.69;;;13.70;100.00
41264;BME280;26998;48.714;9.414;2022-08-24T05:39:46;98934.72;;;13.80;100.00
41264;BME280;26998;48.714;9.414;2022-08-24T05:42:13;98940.84;;;13.94;100.00
41264;BME280;26998;48.714;9.414;2022-08-24T05:44:39;98934.31;;;14.08;100.00
41264;BME280;26998;48.714;9.414;2022-08-24T05:47:06;98938.72;;;14.27;100.00
41264;BME280;26998;48.714;9.414;2022-08-24T05:49:34;98930.88;;;14.51;100.00
41264;BME280;26998;48.714;9.414;2022-08-24T05:52:06;98945.78;;;14.47;100.00
41264;BME280;26998;48.714;9.414;2022-08-24T05:54:32;98948.31;;;14.42;100.00
41264;BME280;26998;48.714;9.414;2022-08-24T05:56:59;98944.22;;;14.64;100.00
41264;BME280;26998;48.714;9.414;2022-08-24T05:59:25;98960.88;;;14.48;100.00
41264;BME280;26998;48.714;9.414;2022-08-24T06:01:52;98949.66;;;14.76;100.00
41264;BME280;26998;48.714;9.414;2022-08-24T06:04:18;98952.16;;;14.77;100.00
41264;BME280;26998;48.714;9.414;2022-08-24T06:06:45;98954.84;;;14.77;100.00
41264;BME280;26998;48.714;9.414;2022-08-24T06:09:14;98951.63;;;15.06;100.00
41264;BME280;26998;48.714;9.414;2022-08-24T06:11:40;98945.03;;;15.20;100.00
41264;BME280;26998;48.714;9.414;2022-08-24T06:14:09;98949.50;;;15.26;100.00
41264;BME280;26998;48.714;9.414;2022-08-24T06:16:38;98951.38;;;15.44;100.00
41264;BME280;26998;48.714;9.414;2022-08-24T06:19:07;98947.31;;;15.53;99.37
41264;BME280;26998;48.714;9.414;2022-08-24T06:21:35;98950.25;;;15.82;97.80
41264;BME280;26998;48.714;9.414;2022-08-24T06:24:01;98945.63;;;16.01;96.46
41264;BME280;26998;48.714;9.414;2022-08-24T06:26:28;98941.78;;;16.08;95.34
41264;BME280;26998;48.714;9.414;2022-08-24T06:28:55;98940.50;;;16.34;92.96
41264;BME280;26998;48.714;9.414;2022-08-24T06:31:22;98942.41;;;16.46;92.38
41264;BME280;26998;48.714;9.414;2022-08-24T06:33:49;98940.97;;;16.31;89.79
41264;BME280;26998;48.714;9.414;2022-08-24T06:36:16;98940.53;;;16.58;89.04
41264;BME280;26998;48.714;9.414;2022-08-24T06:38:48;98941.25;;;16.89;86.01
41264;BME280;26998;48.714;9.414;2022-08-24T06:41:15;98944.53;;;16.91;84.37
41264;BME280;26998;48.714;9.414;2022-08-24T06:43:42;98939.88;;;17.26;83.30
41264;BME280;26998;48.714;9.414;2022-08-24T06:46:08;98941.03;;;17.30;83.76
41264;BME280;26998;48.714;9.414;2022-08-24T06:48:35;98946.88;;;17.39;84.33
41264;BME280;26998;48.714;9.414;2022-08-24T06:51:06;98943.03;;;17.64;83.89
41264;BME280;26998;48.714;9.414;2022-08-24T06:53:33;98943.41;;;17.55;84.11
41264;BME280;26998;48.714;9.414;2022-08-24T06:56:00;98946.00;;;17.50;84.88
41264;BME280;26998;48.714;9.414;2022-08-24T06:58:28;98953.84;;;17.64;84.63
41264;BME280;26998;48.714;9.414;2022-08-24T07:00:55;98948.78;;;17.96;82.38
41264;BME280;26998;48.714;9.414;2022-08-24T07:03:23;98957.00;;;18.01;81.55
41264;BME280;26998;48.714;9.414;2022-08-24T07:05:50;98962.56;;;17.94;78.78
41264;BME280;26998;48.714;9.414;2022-08-24T07:08:17;98959.84;;;18.28;79.40
41264;BME280;26998;48.714;9.414;2022-08-24T07:10:44;98963.78;;;18.37;79.49
41264;BME280;26998;48.714;9.414;2022-08-24T07:13:12;98962.50;;;18.57;78.14
41264;BME280;26998;48.714;9.414;2022-08-24T07:15:39;98974.97;;;18.58;78.02
41264;BME280;26998;48.714;9.414;2022-08-24T07:18:06;98971.25;;;18.98;75.98
41264;BME280;26998;48.714;9.414;2022-08-24T07:20:33;98974.09;;;19.08;73.19
41264;BME280;26998;48.714;9.414;2022-08-24T07:22:59;98959.84;;;19.39;71.04
41264;BME280;26998;48.714;9.414;2022-08-24T07:25:28;98962.03;;;19.43;72.28
41264;BME280;26998;48.714;9.414;2022-08-24T07:27:55;98959.72;;;19.73;69.97
41264;BME280;26998;48.714;9.414;2022-08-24T07:30:21;98959.44;;;19.75;68.13
41264;BME280;26998;48.714;9.414;2022-08-24T07:32:53;98965.28;;;20.16;66.80
41264;BME280;26998;48.714;9.414;2022-08-24T07:35:21;98965.72;;;20.35;65.95
41264;BME280;26998;48.714;9.414;2022-08-24T07:37:47;98964.94;;;20.39;64.79
41264;BME280;26998;48.714;9.414;2022-08-24T07:40:16;98959.22;;;19.76;67.30
41264;BME280;26998;48.714;9.414;2022-08-24T07:42:47;98970.00;;;20.30;66.76
41264;BME280;26998;48.714;9.414;2022-08-24T07:45:13;98965.00;;;20.49;65.78
41264;BME280;26998;48.714;9.414;2022-08-24T07:47:40;98971.56;;;20.91;63.57
41264;BME280;26998;48.714;9.414;2022-08-24T07:50:19;98974.38;;;21.11;62.21
41264;BME280;26998;48.714;9.414;2022-08-24T07:52:46;98968.34;;;20.94;62.06
41264;BME280;26998;48.714;9.414;2022-08-24T07:55:13;98966.31;;;21.21;61.17
41264;BME280;26998;48.714;9.414;2022-08-24T07:57:39;98973.75;;;21.41;62.07
41264;BME280;26998;48.714;9.414;2022-08-24T08:00:07;98969.25;;;21.83;60.24
41264;BME280;26998;48.714;9.414;2022-08-24T08:02:36;98973.09;;;22.02;58.68
41264;BME280;26998;48.714;9.414;2022-08-24T08:05:03;98974.25;;;22.22;58.36
41264;BME280;26998;48.714;9.414;2022-08-24T08:07:31;98968.25;;;22.35;56.24
41264;BME280;26998;48.714;9.414;2022-08-24T08:09:57;98976.44;;;22.40;56.46
41264;BME280;26998;48.714;9.414;2022-08-24T08:12:24;98963.03;;;21.98;57.57
41264;BME280;26998;48.714;9.414;2022-08-24T08:14:50;98966.00;;;21.81;58.21
41264;BME280;26998;48.714;9.414;2022-08-24T08:17:16;98967.09;;;22.05;57.58
41264;BME280;26998;48.714;9.414;2022-08-24T08:19:44;98963.28;;;21.96;56.88
41264;BME280;26998;48.714;9.414;2022-08-24T08:22:11;98964.94;;;22.58;55.90
41264;BME280;26998;48.714;9.414;2022-08-24T08:24:38;98969.06;;;22.41;55.35
41264;BME280;26998;48.714;9.414;2022-08-24T08:27:05;98967.44;;;22.24;55.54
41264;BME280;26998;48.714;9.414;2022-08-24T08:29:32;98964.41;;;22.67;54.41
41264;BME280;26998;48.714;9.414;2022-08-24T08:31:59;98959.22;;;22.80;54.86
41264;BME280;26998;48.714;9.414;2022-08-24T08:34:25;98963.75;;;23.31;52.72
41264;BME280;26998;48.714;9.414;2022-08-24T08:36:52;98962.75;;;23.61;51.45
41264;BME280;26998;48.714;9.414;2022-08-24T08:39:20;98959.16;;;23.81;50.57
41264;BME280;26998;48.714;9.414;2022-08-24T08:41:51;98955.44;;;24.06;50.43
41264;BME280;26998;48.714;9.414;2022-08-24T08:46:56;98956.50;;;24.10;49.55
41264;BME280;26998;48.714;9.414;2022-08-24T08:52:11;98961.44;;;24.77;47.72
41264;BME280;26998;48.714;9.414;2022-08-24T08:54:53;98951.31;;;25.01;46.38
41264;BME280;26998;48.714;9.414;2022-08-24T09:13:01;98951.53;;;25.53;40.77
41264;BME280;26998;48.714;9.414;2022-08-24T09:15:35;98958.25;;;25.42;39.87
41264;BME280;26998;48.714;9.414;2022-08-24T09:21:00;98949.56;;;25.58;40.00
41264;BME280;26998;48.714;9.414;2022-08-24T09:26:27;98949.03;;;26.13;39.92
41264;BME280;26998;48.714;9.414;2022-08-24T09:29:02;98945.94;;;26.01;39.73
41264;BME280;26998;48.714;9.414;2022-08-24T09:31:33;98956.00;;;26.24;39.98
41264;BME280;26998;48.714;9.414;2022-08-24T09:34:15;98943.69;;;26.22;40.40
41264;BME280;26998;48.714;9.414;2022-08-24T09:36:53;98953.72;;;26.45;38.15
41264;BME280;26998;48.714;9.414;2022-08-24T09:42:19;98945.91;;;27.13;38.09
41264;BME280;26998;48.714;9.414;2022-08-24T09:44:53;98943.38;;;26.89;38.38
41264;BME280;26998;48.714;9.414;2022-08-24T09:47:30;98945.69;;;26.82;38.88
41264;BME280;26998;48.714;9.414;2022-08-24T09:50:21;98938.78;;;26.70;38.80
41264;BME280;26998;48.714;9.414;2022-08-24T09:55:50;98942.09;;;27.42;38.46
41264;BME280;26998;48.714;9.414;2022-08-24T10:03:27;98935.72;;;27.69;33.70
41264;BME280;26998;48.714;9.414;2022-08-24T10:16:26;98945.66;;;27.42;31.61
41264;BME280;26998;48.714;9.414;2022-08-24T10:21:50;98923.66;;;27.56;33.41
41264;BME280;26998;48.714;9.414;2022-08-24T10:24:24;98926.81;;;27.49;33.54
41264;BME280;26998;48.714;9.414;2022-08-24T10:32:35;98909.28;;;27.73;32.46
41264;BME280;26998;48.714;9.414;2022-08-24T10:35:09;98911.81;;;28.50;34.01
41264;BME280;26998;48.714;9.414;2022-08-24T10:48:26;98902.44;;;28.06;32.00
41264;BME280;26998;48.714;9.414;2022-08-24T10:53:46;98906.88;;;28.61;30.15
41264;BME280;26998;48.714;9.414;2022-08-24T10:56:15;98909.25;;;28.85;30.03
41264;BME280;26998;48.714;9.414;2022-08-24T11:03:57;98909.28;;;28.63;32.29
41264;BME280;26998;48.714;9.414;2022-08-24T11:06:26;98910.81;;;29.09;32.35
41264;BME280;26998;48.714;9.414;2022-08-24T11:08:57;98911.16;;;29.24;31.75
41264;BME280;26998;48.714;9.414;2022-08-24T11:11:26;98904.16;;;29.67;31.04
41264;BME280;26998;48.714;9.414;2022-08-24T11:13:54;98913.22;;;29.76;30.20
41264;BME280;26998;48.714;9.414;2022-08-24T11:16:22;98909.75;;;29.36;29.31
41264;BME280;26998;48.714;9.414;2022-08-24T11:18:51;98907.38;;;29.86;29.18
41264;BME280;26998;48.714;9.414;2022-08-24T11:21:30;98898.09;;;29.48;29.68
41264;BME280;26998;48.714;9.414;2022-08-24T11:24:23;98903.00;;;29.68;28.58
41264;BME280;26998;48.714;9.414;2022-08-24T11:26:55;98897.84;;;29.09;27.70
41264;BME280;26998;48.714;9.414;2022-08-24T11:29:26;98909.88;;;28.82;28.19
41264;BME280;26998;48.714;9.414;2022-08-24T11:31:53;98889.97;;;28.23;28.53
41264;BME280;26998;48.714;9.414;2022-08-24T11:34:29;98907.50;;;28.36;28.42
41264;BME280;26998;48.714;9.414;2022-08-24T11:36:56;98893.06;;;28.52;28.93
41264;BME280;26998;48.714;9.414;2022-08-24T11:39:25;98903.69;;;28.76;29.06
41264;BME280;26998;48.714;9.414;2022-08-24T11:49:55;98889.38;;;28.97;27.94
41264;BME280;26998;48.714;9.414;2022-08-24T11:55:09;98889.66;;;29.27;27.89
41264;BME280;26998;48.714;9.414;2022-08-24T11:58:00;98898.38;;;29.20;28.28
41264;BME280;26998;48.714;9.414;2022-08-24T12:00:38;98885.72;;;29.19;28.78
41264;BME280;26998;48.714;9.414;2022-08-24T12:06:02;98893.88;;;28.93;28.19
41264;BME280;26998;48.714;9.414;2022-08-24T12:08:33;98877.34;;;28.75;29.06
41264;BME280;26998;48.714;9.414;2022-08-24T12:11:13;98886.28;;;28.90;28.83
41264;BME280;26998;48.714;9.414;2022-08-24T12:13:51;98886.44;;;28.93;28.42
41264;BME280;26998;48.714;9.414;2022-08-24T12:19:10;98881.06;;;29.37;27.40
41264;BME280;26998;48.714;9.414;2022-08-24T12:21:40;98886.41;;;29.33;27.84
41264;BME280;26998;48.714;9.414;2022-08-24T12:24:11;98876.88;;;28.91;28.51
41264;BME280;26998;48.714;9.414;2022-08-24T12:26:40;98884.44;;;29.25;28.58
41264;BME280;26998;48.714;9.414;2022-08-24T12:29:10;98867.78;;;29.30;28.16
41264;BME280;26998;48.714;9.414;2022-08-24T12:31:51;98868.56;;;29.05;27.93
41264;BME280;26998;48.714;9.414;2022-08-24T12:34:22;98872.28;;;29.09;28.20
41264;BME280;26998;48.714;9.414;2022-08-24T12:39:25;98873.16;;;29.53;29.96
41264;BME280;26998;48.714;9.414;2022-08-24T12:44:36;98872.88;;;29.63;29.09
41264;BME280;26998;48.714;9.414;2022-08-24T12:47:03;98874.75;;;29.28;29.40
41264;BME280;26998;48.714;9.414;2022-08-24T12:49:42;98872.69;;;29.51;29.71
41264;BME280;26998;48.714;9.414;2022-08-24T12:52:33;98868.00;;;29.60;29.20
41264;BME280;26998;48.714;9.414;2022-08-24T12:58:19;98860.84;;;29.33;31.66
41264;BME280;26998;48.714;9.414;2022-08-24T13:01:03;98865.66;;;29.10;32.49
41264;BME280;26998;48.714;9.414;2022-08-24T13:05:59;98853.13;;;29.61;32.62
41264;BME280;26998;48.714;9.414;2022-08-24T13:08:33;98853.44;;;29.77;31.97
41264;BME280;26998;48.714;9.414;2022-08-24T13:11:10;98855.34;;;30.02;31.71
41264;BME280;26998;48.714;9.414;2022-08-24T13:13:40;98849.00;;;30.10;31.40
41264;BME280;26998;48.714;9.414;2022-08-24T13:16:08;98848.19;;;29.40;32.27
41264;BME280;26998;48.714;9.414;2022-08-24T13:18:45;98854.53;;;30.02;31.21
41264;BME280;26998;48.714;9.414;2022-08-24T13:21:15;98848.06;;;29.89;31.29
41264;BME280;26998;48.714;9.414;2022-08-24T13:23:42;98844.34;;;29.85;31.99
41264;BME280;26998;48.714;9.414;2022-08-24T13:26:22;98839.31;;;29.35;32.51
41264;BME280;26998;48.714;9.414;2022-08-24T13:28:50;98838.97;;;29.36;33.24
41264;BME280;26998;48.714;9.414;2022-08-24T13:31:32;98836.53;;;29.17;33.82
41264;BME280;26998;48.714;9.414;2022-08-24T13:41:48;98824.59;;;29.74;33.72
41264;BME280;26998;48.714;9.414;2022-08-24T13:44:24;98828.44;;;29.30;34.18
41264;BME280;26998;48.714;9.414;2022-08-24T13:47:05;98826.34;;;29.53;34.10
41264;BME280;26998;48.714;9.414;2022-08-24T13:55:05;98829.66;;;28.89;35.96
41264;BME280;26998;48.714;9.414;2022-08-24T13:57:50;98826.09;;;28.48;36.31
41264;BME280;26998;48.714;9.414;2022-08-24T14:03:09;98823.69;;;28.55;37.00
41264;BME280;26998;48.714;9.414;2022-08-24T14:11:16;98814.16;;;29.02;36.61
41264;BME280;26998;48.714;9.414;2022-08-24T14:13:55;98812.13;;;28.76;36.81
41264;BME280;26998;48.714;9.414;2022-08-24T14:16:50;98805.69;;;28.89;37.15
41264;BME280;26998;48.714;9.414;2022-08-24T14:24:32;98801.69;;;29.13;36.14
41264;BME280;26998;48.714;9.414;2022-08-24T14:27:04;98794.38;;;28.82;37.99
41264;BME280;26998;48.714;9.414;2022-08-24T14:29:31;98798.81;;;29.18;36.72
41264;BME280;26998;48.714;9.414;2022-08-24T14:37:32;98798.66;;;29.23;35.28
41264;BME280;26998;48.714;9.414;2022-08-24T14:42:39;98797.53;;;28.58;37.28
41264;BME280;26998;48.714;9.414;2022-08-24T14:45:08;98794.75;;;29.07;36.70
41264;BME280;26998;48.714;9.414;2022-08-24T14:52:43;98785.69;;;29.15;36.33
41264;BME280;26998;48.714;9.414;2022-08-24T14:55:15;98787.25;;;28.90;36.64
41264;BME280;26998;48.714;9.414;2022-08-24T14:57:56;98792.66;;;29.04;36.57
41264;BME280;26998;48.714;9.414;2022-08-24T15:06:24;98782.47;;;29.04;36.57
41264;BME280;26998;48.714;9.414;2022-08-24T15:09:04;98788.13;;;29.08;36.37
41264;BME280;26998;48.714;9.414;2022-08-24T15:11:41;98779.38;;;29.23;36.41
41264;BME280;26998;48.714;9.414;2022-08-24T15:14:20;98782.94;;;29.15;36.94
41264;BME280;26998;48.714;9.414;2022-08-24T15:19:55;98773.19;;;28.91;36.97
41264;BME280;26998;48.714;9.414;2022-08-24T15:22:28;98766.75;;;29.13;36.78
41264;BME280;26998;48.714;9.414;2022-08-24T15:25:10;98772.09;;;29.27;36.74
41264;BME280;26998;48.714;9.414;2022-08-24T15:30:05;98773.06;;;29.05;36.38
41264;BME280;26998;48.714;9.414;2022-08-24T15:32:48;98780.13;;;28.89;36.97
41264;BME280;26998;48.714;9.414;2022-08-24T15:35:25;98771.94;;;28.49;37.65
41264;BME280;26998;48.714;9.414;2022-08-24T15:37:53;98769.69;;;28.60;37.66
41264;BME280;26998;48.714;9.414;2022-08-24T15:40:27;98771.06;;;28.88;36.86
41264;BME280;26998;48.714;9.414;2022-08-24T15:42:55;98767.13;;;28.72;37.47
41264;BME280;26998;48.714;9.414;2022-08-24T15:45:22;98767.69;;;28.91;37.07
41264;BME280;26998;48.714;9.414;2022-08-24T15:47:49;98774.28;;;28.90;37.58